BDR Airport (Igor I Sikorsky Memorial) Information

FAA: BDR - ICAO: KBDR

BDR Airport Location

State Connecticut
County Fairfield
City Bridgeport
BDR Airport is 3 miles southeast of Bridgeport, CT.
Latitude 41-09-48.5000N
Longitude 073-07-34.2000W
Elevation 8ft

KBDR Airport METARs

METAR KBDR 070752Z AUTO 27014G18KT 10SM 04/M07 A2996 RMK AO2 SLP145 T00441067 $
Altimeter 29.96"
Temperature 4.4°C (39.9°F)
Wind 270° at 14KT with gusts to 18KT
Clouds at 0ft
Visibility 10.0mi
Time observed: 2021-12-07T07:52:00Z

BDR Airport Details

Status Operational
Activation April 1940
Ownership Public
Usage Public
Chart NEW YORK
ATC on-site Yes
Beacon schedule sunset-sunrise
Beacon color clear green

BDR Airport Contacts

Owner CITY OF BRIDGEPORT
Owner address 45 LYON TERRACE, BRIDGEPORT, CT 06615
Owner phone 203-576-7201
Manager WILLIAM E. HART, CHIEF PILOT
Manager address OLD WINDSOR ROAD, BLOOMFIELD, CT 06002
Manager phone (860) 243-7813

BDR Airport (Igor I Sikorsky Memorial) Radio Frequencies

BDR (Airport) Radio Frequencies

UNICOM 123
Common traffic advisory frequency (CTAF) 120.9